Home > Products > Valid Products > TAF

000
FTUS45 KABQ 291741
TAFFMN
TAF
KFMN 291741Z 2918/3018 27010KT P6SM SCT035 SCT060
     FM292000 28014G24KT P6SM VCSH BKN070
     FM300300 30007KT P6SM BKN090
     FM300900 08006KT P6SM BKN060=



000
FTUS45 KABQ 291741
TAFTCC
TAF
KTCC 291741Z 2918/3018 33011KT P6SM VCTS OVC035CB
      TEMPO 2918/2922 -SHRA BKN025
     FM292200 33011G18KT P6SM VCSH BKN060
     FM300100 01009KT P6SM SCT050
     FM301500 12006KT P6SM SCT100=



000
FTUS45 KABQ 291741
TAFSAF
TAF
KSAF 291741Z 2918/3018 24014KT P6SM VCSH BKN035
     FM291900 27015G25KT P6SM VCSH BKN050
      TEMPO 2919/2922 VRB15G25KT -TSRA BKN035CB
     FM300100 28009KT P6SM VCSH OVC040
     FM300400 VRB05KT P6SM BKN060=



000
FTUS45 KABQ 291741
TAFROW
TAF
KROW 291741Z 2918/3018 27014G25KT P6SM SKC
     FM292100 25018G26KT P6SM SCT090 BKN120
     FM300200 25012KT P6SM BKN090
     FM300900 31010KT P6SM SKC=



000
FTUS45 KABQ 291741
TAFGUP
TAF
KGUP 291741Z 2918/3018 23013KT P6SM BKN035 BKN060
     FM291900 26015G25KT P6SM VCSH OVC050
     FM300200 26009KT P6SM BKN080
     FM300500 21007KT P6SM BKN035 BKN060
     FM301600 25010KT P6SM BKN060=



000
FTUS45 KABQ 291741
TAFLVS
TAF
KLVS 291741Z 2918/3018 27010KT P6SM VCTS BKN035CB
      TEMPO 2918/2920 -SHRA BKN025
     FM292000 26013G23KT P6SM VCSH BKN040
     FM300200 02008KT P6SM BKN015
     FM300800 23008KT P6SM BKN007
     FM301400 18008KT P6SM BKN050=



000
FTUS45 KABQ 291741
TAFABQ
TAF
KABQ 291741Z 2918/3018 26010KT P6SM BKN050 BKN100
     FM292000 27013G23KT P6SM VCSH BKN060
     FM300300 28010KT P6SM VCSH BKN080
     FM300800 22006KT P6SM SCT080 BKN150=



000
FTUS45 KABQ 291503 AAB
TAFGUP
TAF AMD
KGUP 291503Z 2915/3012 23013KT P6SM VCSH BKN035 BKN060
     FM291800 26015G25KT P6SM VCSH OVC050
     FM300200 29009KT P6SM BKN080=



000
FTUS45 KABQ 291502 AAB
TAFLVS
TAF AMD
KLVS 291502Z 2915/3012 04009KT P6SM BKN015 BKN025
      TEMPO 2915/2916 OVC003
     FM291700 32012KT P6SM VCSH BKN035
     FM292000 26017G27KT P6SM VCSH BKN060
     FM300200 02008KT P6SM BKN015=



000
FTUS45 KABQ 291335 AAA
TAFGUP
TAF AMD
KGUP 291335Z 2914/3012 22006KT P6SM BKN025 BKN080
     FM291600 25013KT P6SM VCSH BKN035 OVC060
     FM292000 26015G25KT P6SM VCSH OVC050
     FM300200 29009KT P6SM BKN080=



000
FTUS45 KABQ 291335 AAA
TAFGUP
TAF AMD
KGUP 291335Z 2914/3012 22006KT P6SM BKN025 BKN080
     FM291600 25013KT P6SM VCSH BKN035 OVC060
     FM292000 26015G25KT P6SM VCSH OVC050
     FM300200 29009KT P6SM BKN080=



000
FTUS45 KABQ 291334 AAA
TAFSAF
TAF AMD
KSAF 291334Z 2914/3012 32010KT P6SM SCT015 SCT050
     FM291600 24014KT P6SM VCSH BKN035
     FM291900 27015G25KT P6SM VCSH BKN050
     FM300200 30009KT P6SM VCSH OVC040=



000
FTUS45 KABQ 291334 AAA
TAFSAF
TAF AMD
KSAF 291334Z 2914/3012 32010KT P6SM SCT015 SCT050
     FM291600 24014KT P6SM VCSH BKN035
     FM291900 27015G25KT P6SM VCSH BKN050
     FM300200 30009KT P6SM VCSH OVC040=



000
FTUS45 KABQ 291332 AAA
TAFLVS
TAF AMD
KLVS 291332Z 2914/3012 03010KT 5SM BR VCSH BKN004 OVC015
      TEMPO 2914/2915 1/2SM FG VV001
     FM291500 05008KT P6SM VCSH BKN015 BKN025
     FM291700 32012KT P6SM VCSH BKN035
     FM292000 26017G27KT P6SM VCSH BKN060
     FM300200 02008KT P6SM BKN015=



000
FTUS45 KABQ 291329 AAA
TAFTCC
TAF AMD
KTCC 291329Z 2913/3012 01014KT P6SM VCSH OVC010
     FM291500 34010KT P6SM BKN010 BKN025
     FM291800 33011KT P6SM VCSH OVC050
     FM292200 33011KT P6SM BKN060
     FM300100 06009KT P6SM OVC050=



000
FTUS45 KABQ 291329 AAA
TAFTCC
TAF AMD
KTCC 291329Z 2913/3012 01014KT P6SM VCSH OVC010
     FM291500 34010KT P6SM BKN010 BKN025
     FM291800 33011KT P6SM VCSH OVC050
     FM292200 33011KT P6SM BKN060
     FM300100 06009KT P6SM OVC050=



000
FTUS45 KABQ 291120
TAFSAF
TAF
KSAF 291120Z 2912/3012 24014KT 5SM -SHRA BKN015 OVC025
      TEMPO 2912/2914 2SM SHRA OVC012
     FM291400 23015KT P6SM VCSH BKN025
     FM291700 26012KT P6SM BKN050
     FM292000 27015G25KT P6SM VCSH OVC050
     FM300200 30009KT P6SM VCSH OVC040=



000
FTUS45 KABQ 291120
TAFLVS
TAF
KLVS 291120Z 2912/3012 03010KT 6SM -RASN OVC003
      TEMPO 2912/2915 1SM RASN VV001
     FM291500 05008KT 5SM -RA OVC005
     FM291700 32012KT P6SM VCSH OVC035
     FM292000 26017G27KT P6SM VCSH BKN060
     FM300200 02008KT P6SM BKN015=



000
FTUS45 KABQ 291120
TAFROW
TAF
KROW 291120Z 2912/3012 32009KT P6SM BKN120
     FM291500 26014G25KT P6SM BKN120
     FM292200 25022G28KT P6SM SCT090 BKN120
     FM300200 25012KT P6SM BKN090=



000
FTUS45 KABQ 291120
TAFTCC
TAF
KTCC 291120Z 2912/3012 01014KT P6SM -SHRA OVC010
      TEMPO 2913/2917 -TSRA BKN007CB
     FM291800 33011KT P6SM VCSH BKN025 OVC050
     FM292200 33011KT P6SM BKN060
     FM300100 06009KT P6SM OVC050=



000
FTUS45 KABQ 291120
TAFABQ
TAF
KABQ 291120Z 2912/3012 23008KT P6SM VCSH FEW010 BKN070
     FM291400 24008KT P6SM FEW050 SCT090
     FM291600 26012G19KT P6SM SCT060 BKN100
     FM292000 27015G25KT P6SM VCSH BKN060
     FM300300 28010KT P6SM VCSH BKN080=



000
FTUS45 KABQ 291120
TAFFMN
TAF
KFMN 291120Z 2912/3012 09006KT P6SM VCSH BKN080
     FM291700 27008KT P6SM SCT070
     FM292100 28017G27KT P6SM VCSH BKN070
     FM300300 31007KT P6SM BKN090=



000
FTUS45 KABQ 291120
TAFGUP
TAF
KGUP 291120Z 2912/3012 22006KT P6SM BKN080
     FM291600 25013KT P6SM VCSH BKN035 OVC080
     FM292000 26015G25KT P6SM VCSH OVC050
     FM300200 29009KT P6SM BKN080=



000
FTUS45 KABQ 290959 AAA
TAFLVS
TAF AMD
KLVS 290959Z 2910/3006 03010KT 6SM -SHRA OVC008
      TEMPO 2910/2914 3SM RASN OVC004
     FM291400 05006KT 5SM -RASN OVC008
     FM291700 25011KT P6SM VCSH OVC035
     FM292000 25017G27KT P6SM VCSH BKN060
     FM300200 02008KT P6SM OVC040=



000
FTUS45 KABQ 290956 AAA
TAFSAF
TAF AMD
KSAF 290956Z 2910/3006 24012G24KT 5SM -SHRA BKN025 OVC050
      TEMPO 2910/2914 3SM SHRA OVC025
     FM291400 23012KT P6SM VCSH BKN035
     FM291800 26012KT P6SM BKN050
     FM292100 27015G25KT P6SM VCSH OVC050
     FM300200 30009KT P6SM VCSH OVC040=



000
FTUS45 KABQ 290953 AAA
TAFTCC
TAF AMD
KTCC 290953Z 2910/3006 01015KT P6SM OVC010
      TEMPO 2910/2912 -TSRA BKN005CB
     FM291600 34007KT P6SM BKN025
     FM291900 33011KT P6SM VCSH BKN050
     FM300000 06009KT P6SM OVC050=



000
FTUS45 KABQ 290951 AAB
TAFABQ
TAF AMD
KABQ 290951Z 2910/3006 27007KT 6SM -SHRA OVC040
      TEMPO 2910/2912 3SM SHRA OVC025
     FM291200 26012G19KT P6SM VCSH BKN040
      TEMPO 2912/2916 -SHRA BKN025
     FM292000 27015G25KT P6SM VCSH OVC060
     FM300300 28010KT P6SM VCSH OVC060=



000
FTUS45 KABQ 290908 AAA
TAFABQ
TAF AMD
KABQ 290908Z 2909/3006 27012KT P6SM SCT040 OVC070
      TEMPO 2909/2912 -SHRA OVC040
     FM291200 26012G19KT P6SM VCSH BKN040
     FM292000 27015G25KT P6SM VCSH OVC060
     FM300300 28010KT P6SM VCSH OVC060=



000
FTUS45 KABQ 290527
TAFABQ
TAF
KABQ 290527Z 2906/3006 33014KT P6SM BKN100
     FM290900 34008KT P6SM VCSH OVC070
     FM292000 27015G25KT P6SM VCSH OVC060
     FM300300 28010KT P6SM VCSH OVC060=



000
FTUS45 KABQ 290527
TAFLVS
TAF
KLVS 290527Z 2906/3006 03010KT P6SM VCSH OVC015
      TEMPO 2906/2910 5SM -RA OVC009
     FM291000 05006KT P6SM OVC020
     FM291700 25011KT P6SM OVC035
     FM292000 25017G27KT P6SM VCSH BKN060
     FM300200 02008KT P6SM OVC040=



000
FTUS45 KABQ 290527
TAFTCC
TAF
KTCC 290527Z 2906/3006 03015KT P6SM OVC012
     FM291600 34007KT P6SM BKN025
     FM291900 33011KT P6SM VCSH BKN050
     FM300000 06009KT P6SM OVC050=



000
FTUS45 KABQ 290527
TAFGUP
TAF
KGUP 290527Z 2906/3006 22008KT P6SM BKN100
      TEMPO 2913/2917 5SM -RASN OVC025
     FM291800 25013KT P6SM VCSH OVC035
     FM292000 26015G25KT P6SM VCSH OVC050
     FM300200 29009KT P6SM OVC050=



000
FTUS45 KABQ 290527
TAFSAF
TAF
KSAF 290527Z 2906/3006 12018G28KT P6SM BKN080
     FM291000 35009KT P6SM VCSH OVC035
     FM291800 26012KT P6SM BKN050
     FM292100 27015G25KT P6SM VCSH OVC050
     FM300200 30009KT P6SM VCSH OVC040=



000
FTUS45 KABQ 290527
TAFFMN
TAF
KFMN 290527Z 2906/3006 29006KT P6SM VCSH OVC100
     FM290800 10007KT P6SM BKN080
     FM291800 27008KT P6SM BKN080
     FM292100 28017G27KT P6SM VCSH BKN080
     FM300300 29007KT P6SM BKN100=



000
FTUS45 KABQ 290527
TAFROW
TAF
KROW 290527Z 2906/3006 24009KT P6SM BKN120
     FM291700 25012KT P6SM BKN120
     FM292200 25016G26KT P6SM BKN120
     FM300200 25012KT P6SM BKN100=



000
FTUS45 KABQ 290409 AAA
TAFTCC
TAF AMD
KTCC 290409Z 2904/2924 09015G23KT P6SM BKN050
     FM291100 01014G22KT P6SM OVC040
     FM291500 25015KT P6SM BKN060
     FM291900 25020G32KT P6SM VCSH BKN100=



000
FTUS45 KABQ 290408 AAB
TAFLVS
TAF AMD
KLVS 290408Z 2904/2924 04013KT P6SM VCSH OVC020
      TEMPO 2905/2909 5SM -RA OVC015
     FM290900 05006KT P6SM OVC020
     FM291500 25011KT P6SM OVC035
     FM291900 24017G27KT P6SM VCSH OVC050=



000
FTUS45 KABQ 290206 AAA
TAFLVS
TAF AMD
KLVS 290206Z 2902/2924 10007KT P6SM VCSH BKN100
     FM290300 10014KT P6SM VCSH OVC050
     FM290500 05010KT P6SM OVC035
      TEMPO 2905/2909 6SM -RA OVC025
     FM290900 05006KT P6SM OVC020
     FM291500 25011KT P6SM OVC035
     FM291900 24017G27KT P6SM VCSH OVC050=



000
FTUS45 KABQ 290204 AAA
TAFSAF
TAF AMD
KSAF 290204Z 2902/2924 15014G22KT P6SM BKN080
     FM290600 34011KT P6SM VCSH OVC060
     FM291000 35009KT P6SM VCSH OVC050
     FM291800 26012KT P6SM BKN050
     FM292100 27016G26KT P6SM VCSH OVC050=



000
FTUS45 KABQ 290204 AAA
TAFABQ
TAF AMD
KABQ 290204Z 2902/2924 20010KT P6SM BKN120
     FM290600 28011KT P6SM VCSH OVC080
     FM290900 34011KT P6SM VCSH OVC070
     FM291200 35006KT P6SM BKN060
     FM291900 27014G24KT P6SM VCSH OVC050=



000
FTUS45 KABQ 290204 AAA
TAFSAF
TAF AMD
KSAF 290204Z 2902/2924 15014G22KT P6SM BKN080
     FM290600 34011KT P6SM VCSH OVC060
     FM291000 35009KT P6SM VCSH OVC050
     FM291800 26012KT P6SM BKN050
     FM292100 27016G26KT P6SM VCSH OVC050=



000
FTUS45 KABQ 282324
TAFFMN
TAF
KFMN 282324Z 2900/2924 27018G26KT P6SM VCSH BKN100
     FM290200 25009KT P6SM VCSH BKN080
     FM290800 08006KT P6SM BKN060
     FM291800 27007KT P6SM BKN070
     FM292100 27015G25KT P6SM VCSH BKN080=



000
FTUS45 KABQ 282324
TAFGUP
TAF
KGUP 282324Z 2900/2924 24024G38KT P6SM VCSH BKN090
     FM290200 24012G20KT P6SM VCSH OVC080
     FM290400 22006KT P6SM OVC060
      TEMPO 2911/2915 6SM -RA OVC025
     FM291500 23011KT P6SM OVC035
     FM291900 26015G25KT P6SM VCSH OVC050=



000
FTUS45 KABQ 282324
TAFABQ
TAF
KABQ 282324Z 2900/2924 18016G28KT P6SM BKN120
     FM290200 17012KT P6SM BKN100
     FM290600 28011KT P6SM VCSH OVC080
     FM290900 34011KT P6SM VCSH OVC070
     FM291200 35006KT P6SM BKN060
     FM291900 27014G24KT P6SM VCSH OVC050=



000
FTUS45 KABQ 282324
TAFSAF
TAF
KSAF 282324Z 2900/2924 17020G30KT P6SM BKN080
     FM290200 17013KT P6SM BKN070
     FM290600 34011KT P6SM VCSH OVC060
     FM291000 35009KT P6SM VCSH OVC050
     FM291800 26012KT P6SM BKN050
     FM292100 27016G26KT P6SM VCSH OVC050=



000
FTUS45 KABQ 282324
TAFROW
TAF
KROW 282324Z 2900/2924 21022G32KT P6SM FEW120
     FM290200 21011KT P6SM FEW120
     FM291900 25014G24KT P6SM BKN120=



000
FTUS45 KABQ 282324
TAFTCC
TAF
KTCC 282324Z 2900/2924 04018G26KT P6SM SCT120
     FM290300 10013KT P6SM BKN100
     FM291100 01014G22KT P6SM OVC050
     FM291500 25015KT P6SM BKN060
     FM291900 25020G32KT P6SM VCSH BKN100=



000
FTUS45 KABQ 282324
TAFLVS
TAF
KLVS 282324Z 2900/2924 16016G24KT P6SM VCSH OVC090
     FM290300 11014KT P6SM VCSH OVC050
     FM290500 05010KT P6SM OVC035
      TEMPO 2905/2909 6SM -RA OVC025
     FM290900 05006KT P6SM OVC020
     FM291500 25011KT P6SM OVC035
     FM291900 24017G27KT P6SM VCSH OVC050=



000
FTUS45 KABQ 282044 AAA
TAFTCC
TAF AMD
KTCC 282044Z 2821/2918 04015G25KT P6SM SCT090
     FM282300 10015G25KT P6SM SCT090 BKN140
     FM290700 12011KT P6SM BKN120
     FM291330 26015G25KT P6SM BKN120=



000
FTUS45 KABQ 281739
TAFLVS
TAF
KLVS 281739Z 2818/2918 13011KT P6SM SCT120
      TEMPO 2818/2821 13012G22KT
     FM282100 18021G31KT P6SM SCT120
     FM290200 19010KT P6SM BKN100
     FM290500 04011KT P6SM VCSH SCT007 OVC070
     FM291000 04008KT P6SM BKN007
     FM291400 24012G22KT P6SM SCT010 BKN080=



000
FTUS45 KABQ 281739
TAFROW
TAF
KROW 281739Z 2818/2918 22013G23KT P6SM SCT200
     FM282100 20020G30KT P6SM SCT200
     FM290200 23011KT P6SM SCT200
     FM291330 25013G23KT P6SM SKC=



000
FTUS45 KABQ 281739
TAFGUP
TAF
KGUP 281739Z 2818/2918 22020G30KT P6SM SCT060
     FM282000 23027G37KT P6SM VCSH OVC060
     FM290200 24012G20KT P6SM OVC080
     FM290400 22006KT P6SM SCT020 BKN060
     FM291200 22011KT 6SM -RA BR SCT005 BKN020
     FM291700 26014G24KT P6SM VCSH SCT025 BKN040=



000
FTUS45 KABQ 281739
TAFTCC
TAF
KTCC 281739Z 2818/2918 10011KT P6SM SCT120 BKN150
     FM282000 19018G28KT P6SM SCT090 BKN140
     FM290200 14011KT P6SM BKN120
     FM291330 26015G25KT P6SM BKN120=



000
FTUS45 KABQ 281739
TAFSAF
TAF
KSAF 281739Z 2818/2918 18015G25KT P6SM BKN080
     FM282000 20018G28KT P6SM VCSH OVC070
     FM290130 32009KT P6SM OVC060
     FM290400 32008KT P6SM VCSH OVC050
     FM291500 28011KT P6SM SCT060=



000
FTUS45 KABQ 281739
TAFFMN
TAF
KFMN 281739Z 2818/2918 18012G22KT P6SM SCT080
     FM282100 21018G28KT P6SM VCSH OVC070
     FM290200 23009KT P6SM VCSH BKN060
     FM290700 06006KT P6SM OVC050
     FM291700 28008KT P6SM SCT015 BKN040=



000
FTUS45 KABQ 281739
TAFLVS
TAF
KLVS 281739Z 2818/2918 13011KT P6SM SCT120
      TEMPO 2818/2821 13012G22KT
     FM282100 18021G31KT P6SM SCT120
     FM290200 19010KT P6SM BKN100
     FM290500 04011KT P6SM VCSH SCT007 OVC070
     FM291000 04008KT P6SM BKN007
     FM291400 24012G22KT P6SM SCT010 BKN080=



000
FTUS45 KABQ 281739
TAFABQ
TAF
KABQ 281739Z 2818/2918 19019G29KT P6SM SCT100
      TEMPO 2821/2901 20023G35KT
     FM290300 28011KT P6SM VCSH OVC080
     FM290600 28006KT P6SM SCT080
     FM291700 28011KT P6SM VCSH BKN060=



000
FTUS45 KABQ 281739
TAFROW
TAF
KROW 281739Z 2818/2918 22013G23KT P6SM SCT200
     FM282100 20020G30KT P6SM SCT200
     FM290200 23011KT P6SM SCT200
     FM291330 25013G23KT P6SM SKC=



000
FTUS45 KABQ 281739
TAFTCC
TAF
KTCC 281739Z 2818/2918 10011KT P6SM SCT120 BKN150
     FM282000 19018G28KT P6SM SCT090 BKN140
     FM290200 14011KT P6SM BKN120
     FM291330 26015G25KT P6SM BKN120=



000
FTUS45 KABQ 281739
TAFFMN
TAF
KFMN 281739Z 2818/2918 18012G22KT P6SM SCT080
     FM282100 21018G28KT P6SM VCSH OVC070
     FM290200 23009KT P6SM VCSH BKN060
     FM290700 06006KT P6SM OVC050
     FM291700 28008KT P6SM SCT015 BKN040=



000
FTUS45 KABQ 281550 AAA
TAFFMN
TAF AMD
KFMN 281550Z 2816/2912 18012G22KT P6SM SCT080
     FM282100 21018G27KT P6SM VCSH OVC070
     FM290200 26009KT P6SM BKN060=



000
FTUS45 KABQ 281120
TAFFMN
TAF
KFMN 281120Z 2812/2912 09006KT P6SM OVC070
     FM281800 18012KT P6SM BKN080
     FM282100 21018G27KT P6SM VCSH OVC070
     FM290200 26009KT P6SM BKN060=



000
FTUS45 KABQ 281120
TAFGUP
TAF
KGUP 281120Z 2812/2912 22011G17KT P6SM OVC080
     FM281700 21014G22KT P6SM VCSH OVC070
     FM282100 23027G37KT P6SM VCSH OVC080
     FM290200 25012KT P6SM OVC080=



000
FTUS45 KABQ 281120
TAFABQ
TAF
KABQ 281120Z 2812/2912 12010KT P6SM BKN070
     FM281700 19017G27KT P6SM BKN120
     FM282200 20025G37KT P6SM VCSH BKN100
     FM290300 26012KT P6SM VCSH OVC080
     FM290600 30007KT P6SM BKN090=



000
FTUS45 KABQ 281120
TAFROW
TAF
KROW 281120Z 2812/2912 22008KT P6SM BKN200
     FM281800 19015G23KT P6SM SCT200
     FM282100 20023G34KT P6SM SCT200
     FM290200 24010KT P6SM BKN250=



000
FTUS45 KABQ 281120
TAFSAF
TAF
KSAF 281120Z 2812/2912 12006KT P6SM VCSH BKN070
     FM281700 19015G25KT P6SM BKN080
     FM282100 22024G36KT P6SM VCSH OVC070
     FM290300 32009KT P6SM VCSH OVC060
     FM290600 35006KT P6SM BKN050=



000
FTUS45 KABQ 281120
TAFLVS
TAF
KLVS 281120Z 2812/2912 05008KT P6SM BKN080
     FM281800 12014G22KT P6SM BKN090
     FM282100 23022G32KT P6SM SCT080 BKN120
     FM290200 19017G23KT P6SM BKN080
     FM290500 06012KT P6SM VCSH OVC070=



000
FTUS45 KABQ 281120
TAFTCC
TAF
KTCC 281120Z 2812/2912 05007KT P6SM BKN120
     FM281800 10011KT P6SM SCT120 BKN150
     FM282100 19018G28KT P6SM SCT090 BKN140
     FM290200 17013KT P6SM BKN120=



000
FTUS45 KABQ 280925 AAB
TAFABQ
TAF AMD
KABQ 280925Z 2809/2906 12010KT P6SM VCSH BKN070 OVC100
     FM281800 19011KT P6SM BKN080 BKN100
     FM282200 20020G30KT P6SM VCSH OVC080
     FM290300 26010KT P6SM VCSH OVC070=



000
FTUS45 KABQ 280924 AAA
TAFSAF
TAF AMD
KSAF 280924Z 2809/2906 33006KT P6SM VCSH BKN070 BKN090
     FM281800 19013KT P6SM BKN080
     FM282100 20018G28KT P6SM VCSH OVC070
     FM290300 20009KT P6SM VCSH OVC060=



000
FTUS45 KABQ 280801 AAA
TAFGUP
TAF AMD
KGUP 280801Z 2808/2906 22012G20KT P6SM OVC080
     FM281700 21014G22KT P6SM VCSH OVC070
     FM282100 23024G34KT P6SM VCSH OVC080
     FM290200 25012KT P6SM OVC080=



000
FTUS45 KABQ 280520
TAFTCC
TAF
KTCC 280520Z 2806/2906 05006KT P6SM BKN120
     FM281800 14011KT P6SM SCT120
     FM282100 20018G28KT P6SM BKN120
     FM290200 19013KT P6SM BKN120=



000
FTUS45 KABQ 280520
TAFGUP
TAF
KGUP 280520Z 2806/2906 22009KT P6SM OVC100
     FM281700 21014G22KT P6SM OVC080
     FM282100 23024G34KT P6SM VCSH OVC080
     FM290200 25012KT P6SM OVC080=



000
FTUS45 KABQ 280520
TAFROW
TAF
KROW 280520Z 2806/2906 23011KT P6SM BKN200
     FM281200 19006KT P6SM BKN200
     FM281800 18015KT P6SM SCT200
     FM282100 20022G34KT P6SM SCT200
     FM290200 24010KT P6SM BKN200=



000
FTUS45 KABQ 280520
TAFLVS
TAF
KLVS 280520Z 2806/2906 05006KT P6SM BKN090
     FM281800 15014G22KT P6SM BKN090
     FM282100 19022G32KT P6SM BKN090
     FM290200 20014G22KT P6SM VCSH OVC070=



000
FTUS45 KABQ 280520
TAFSAF
TAF
KSAF 280520Z 2806/2906 01006KT P6SM BKN100
     FM281800 19013KT P6SM BKN080
     FM282100 20018G28KT P6SM VCSH OVC070
     FM290300 20009KT P6SM VCSH OVC060=



000
FTUS45 KABQ 280520
TAFFMN
TAF
KFMN 280520Z 2806/2906 09006KT P6SM OVC080
     FM281800 18012KT P6SM BKN080
     FM282100 21015G25KT P6SM VCSH OVC070
     FM290200 26009KT P6SM BKN060=



000
FTUS45 KABQ 280520
TAFABQ
TAF
KABQ 280520Z 2806/2906 VRB04KT P6SM BKN070
     FM281800 19011KT P6SM BKN080
     FM282200 20020G30KT P6SM VCSH OVC080
     FM290300 26010KT P6SM VCSH OVC070=



000
FTUS45 KABQ 280257 AAA
TAFABQ
TAF AMD
KABQ 280257Z 2803/2824 03006KT P6SM OVC070
     FM281800 18011KT P6SM BKN080
     FM282200 19016G26KT P6SM VCSH BKN080=



000
FTUS45 KABQ 280257 AAA
TAFABQ
TAF AMD
KABQ 280257Z 2803/2824 03006KT P6SM OVC070
     FM281800 18011KT P6SM BKN080
     FM282200 19016G26KT P6SM VCSH BKN080=



000
FTUS45 KABQ 272334
TAFGUP
TAF
KGUP 272334Z 2800/2824 24013KT P6SM BKN080
     FM280300 23009KT P6SM BKN080
     FM281800 21014G22KT P6SM OVC080
     FM282100 23020G32KT P6SM VCSH OVC080=



000
FTUS45 KABQ 272334
TAFFMN
TAF
KFMN 272334Z 2800/2824 25008KT P6SM BKN080
     FM280200 VRB04KT P6SM BKN080
     FM280600 09006KT P6SM OVC070
     FM281800 17011KT P6SM BKN080
     FM282100 18012G22KT P6SM VCSH OVC070=



000
FTUS45 KABQ 272334
TAFTCC
TAF
KTCC 272334Z 2800/2824 13011KT P6SM SCT120
     FM280200 20010KT P6SM FEW120
     FM280700 04007KT P6SM SCT120
     FM281800 20010KT P6SM SCT120
     FM282100 19018G28KT P6SM BKN120=



000
FTUS45 KABQ 272334
TAFGUP
TAF
KGUP 272334Z 2800/2824 24013KT P6SM BKN080
     FM280300 23009KT P6SM BKN080
     FM281800 21014G22KT P6SM OVC080
     FM282100 23020G32KT P6SM VCSH OVC080=



000
FTUS45 KABQ 272334
TAFSAF
TAF
KSAF 272334Z 2800/2824 26015G25KT P6SM BKN100
     FM280200 31008KT P6SM BKN100
     FM280700 03006KT P6SM BKN100
     FM281800 18012KT P6SM BKN080
     FM282100 20017G27KT P6SM VCSH OVC070=



000
FTUS45 KABQ 272334
TAFLVS
TAF
KLVS 272334Z 2800/2824 24014G24KT P6SM SCT100
     FM280200 27009KT P6SM SCT100
     FM280700 03006KT P6SM BKN100
     FM281800 17015G23KT P6SM BKN100
     FM282100 19020G30KT P6SM BKN100=



000
FTUS45 KABQ 272334
TAFROW
TAF
KROW 272334Z 2800/2824 15003KT P6SM BKN200
     FM280200 22008KT P6SM BKN200
     FM281800 18015KT P6SM SCT200
     FM282100 20022G34KT P6SM SCT200=



000
FTUS45 KABQ 272334
TAFTCC
TAF
KTCC 272334Z 2800/2824 13011KT P6SM SCT120
     FM280200 20010KT P6SM FEW120
     FM280700 04007KT P6SM SCT120
     FM281800 20010KT P6SM SCT120
     FM282100 19018G28KT P6SM BKN120=



000
FTUS45 KABQ 272334
TAFSAF
TAF
KSAF 272334Z 2800/2824 26015G25KT P6SM BKN100
     FM280200 31008KT P6SM BKN100
     FM280700 03006KT P6SM BKN100
     FM281800 18012KT P6SM BKN080
     FM282100 20017G27KT P6SM VCSH OVC070=



000
FTUS45 KABQ 272334
TAFROW
TAF
KROW 272334Z 2800/2824 15003KT P6SM BKN200
     FM280200 22008KT P6SM BKN200
     FM281800 18015KT P6SM SCT200
     FM282100 20022G34KT P6SM SCT200=



000
FTUS45 KABQ 272334
TAFABQ
TAF
KABQ 272334Z 2800/2824 23010KT P6SM BKN100
     FM280200 17007KT P6SM BKN100
     FM281800 18011KT P6SM BKN100
     FM282200 19016G26KT P6SM VCSH BKN080=



000
FTUS45 KABQ 272334
TAFLVS
TAF
KLVS 272334Z 2800/2824 24014G24KT P6SM SCT100
     FM280200 27009KT P6SM SCT100
     FM280700 03006KT P6SM BKN100
     FM281800 17015G23KT P6SM BKN100
     FM282100 19020G30KT P6SM BKN100=



000
FTUS45 KABQ 272334
TAFABQ
TAF
KABQ 272334Z 2800/2824 23010KT P6SM BKN100
     FM280200 17007KT P6SM BKN100
     FM281800 18011KT P6SM BKN100
     FM282200 19016G26KT P6SM VCSH BKN080=



000
FTUS45 KABQ 272334
TAFFMN
TAF
KFMN 272334Z 2800/2824 25008KT P6SM BKN080
     FM280200 VRB04KT P6SM BKN080
     FM280600 09006KT P6SM OVC070
     FM281800 17011KT P6SM BKN080
     FM282100 18012G22KT P6SM VCSH OVC070=



000
FTUS45 KABQ 272142 AAA
TAFTCC
TAF AMD
KTCC 272142Z 2722/2818 15008KT P6SM SCT120
     FM280200 20010KT P6SM SCT120 BKN200
     FM280700 01009KT P6SM SCT080 BKN150
     FM281000 05013KT P6SM BKN040 BKN120=



000
FTUS45 KABQ 271735
TAFSAF
TAF
KSAF 271735Z 2718/2818 28012KT P6SM BKN060 BKN200
     FM272100 26014G22KT P6SM BKN060 BKN150
     FM280200 02006KT P6SM BKN070 BKN120
     FM281100 15010KT P6SM BKN050 BKN120=



000
FTUS45 KABQ 271735
TAFGUP
TAF
KGUP 271735Z 2718/2818 23006KT P6SM FEW060 BKN200
     FM271900 24012G20KT P6SM SCT060 BKN150
     FM280200 23010KT P6SM SCT050 BKN090
     FM280600 19007KT P6SM SCT040 BKN080
     FM281500 22012G18KT P6SM SCT040 BKN080=



000
FTUS45 KABQ 271735
TAFLVS
TAF
KLVS 271735Z 2718/2818 21013KT P6SM FEW070 SCT200
     FM272000 24018G26KT P6SM SCT080 BKN200
     FM280200 28009KT P6SM SCT080 BKN150
     FM280700 03007KT P6SM SCT060 BKN120
     FM281000 07010KT P6SM BKN040 BKN120=



000
FTUS45 KABQ 271735
TAFFMN
TAF
KFMN 271735Z 2718/2818 28010KT P6SM SCT060 BKN120
     FM272200 26010KT P6SM SCT060 BKN090
     FM280200 VRB06KT P6SM BKN060 BKN100
     FM280700 09006KT P6SM BKN040 BKN080=



000
FTUS45 KABQ 271735
TAFROW
TAF
KROW 271735Z 2718/2818 22014G22KT P6SM SCT120
     FM280200 22008KT P6SM SCT120 BKN200=



000
FTUS45 KABQ 271735
TAFABQ
TAF
KABQ 271735Z 2718/2818 27007KT P6SM SCT070 BKN200
     FM272200 26012G18KT P6SM SCT070 BKN150
     FM280200 17006KT P6SM BKN080 BKN120
     FM281500 19012KT P6SM SCT070 BKN150=



000
FTUS45 KABQ 271735
TAFTCC
TAF
KTCC 271735Z 2718/2818 30007KT P6SM FEW200
     FM271900 23012G20KT P6SM SCT120
     FM280200 22009KT P6SM SCT120 BKN200
     FM280700 01009KT P6SM SCT080 BKN150
     FM281000 05013KT P6SM BKN040 BKN120=



000
FTUS45 KABQ 271139
TAFLVS
TAF
KLVS 271139Z 2712/2812 32009KT P6SM FEW120
     FM271800 21013KT P6SM FEW100 SCT200
     FM272000 24018G26KT P6SM SCT100 BKN200
     FM280200 28009KT P6SM SCT100 BKN180
     FM280700 03007KT P6SM SCT080 BKN150=



000
FTUS45 KABQ 271139
TAFSAF
TAF
KSAF 271139Z 2712/2812 VRB05KT P6SM BKN070
     FM271800 28012KT P6SM SCT090 SCT200
     FM272100 26014G22KT P6SM SCT100 BKN180
     FM280200 34006KT P6SM BKN090 BKN150=



000
FTUS45 KABQ 271139
TAFROW
TAF
KROW 271139Z 2712/2812 VRB05KT P6SM SKC
     FM271900 22014G22KT P6SM SCT120
     FM280200 22008KT P6SM SCT120 BKN200=



000
FTUS45 KABQ 271139
TAFGUP
TAF
KGUP 271139Z 2712/2812 23006KT P6SM SCT200
     FM271900 24012G20KT P6SM SCT110 BKN200
     FM280200 23010KT P6SM BKN120
     FM280500 VRB04KT P6SM BKN120=



000
FTUS45 KABQ 271139
TAFTCC
TAF
KTCC 271139Z 2712/2812 29009KT P6SM SKC
     FM271400 30007KT P6SM FEW200
     FM271900 23012G20KT P6SM SCT120
     FM280200 22009KT P6SM SCT120 BKN200
     FM280700 01009KT P6SM SCT080 BKN150=



000
FTUS45 KABQ 271139
TAFABQ
TAF
KABQ 271139Z 2712/2812 VRB04KT P6SM SCT080
     FM271900 27007KT P6SM SCT100 BKN250
     FM272200 24011G19KT P6SM SCT100 BKN180
     FM280200 18008KT P6SM SCT100 BKN150
     FM280400 VRB05KT P6SM SCT090 BKN150=



000
FTUS45 KABQ 271139
TAFFMN
TAF
KFMN 271139Z 2712/2812 VRB04KT P6SM FEW040
     FM271900 28008KT P6SM SCT100 BKN200
     FM272200 26009KT P6SM SCT100 BKN140 BKN200
     FM280200 VRB05KT P6SM BKN080 BKN140=



000
FTUS45 KABQ 270520
TAFGUP
TAF
KGUP 270520Z 2706/2806 23006KT P6SM SCT080
     FM271900 24012G20KT P6SM BKN100
     FM280200 23010KT P6SM OVC070=



000
FTUS45 KABQ 270520
TAFFMN
TAF
KFMN 270520Z 2706/2806 31004KT P6SM BKN045
     FM271000 VRB04KT P6SM SCT040
     FM271900 28008KT P6SM SCT100
     FM272200 26009KT P6SM BKN100
     FM280200 VRB03KT P6SM OVC080=



000
FTUS45 KABQ 270520
TAFFMN
TAF
KFMN 270520Z 2706/2806 31004KT P6SM BKN045
     FM271000 VRB04KT P6SM SCT040
     FM271900 28008KT P6SM SCT100
     FM272200 26009KT P6SM BKN100
     FM280200 VRB03KT P6SM OVC080=



000
FTUS45 KABQ 270520
TAFGUP
TAF
KGUP 270520Z 2706/2806 23006KT P6SM SCT080
     FM271900 24012G20KT P6SM BKN100
     FM280200 23010KT P6SM OVC070=



000
FTUS45 KABQ 270520
TAFABQ
TAF
KABQ 270520Z 2706/2806 VRB03KT P6SM FEW100
     FM271900 27007KT P6SM SCT100
     FM272200 24012G20KT P6SM BKN100
     FM280200 18008KT P6SM BKN080=



000
FTUS45 KABQ 270520
TAFSAF
TAF
KSAF 270520Z 2706/2806 31007KT P6SM BKN070
     FM271800 28012KT P6SM SCT100
     FM272100 26014G22KT P6SM BKN100
     FM280200 34006KT P6SM OVC080=



000
FTUS45 KABQ 270520
TAFABQ
TAF
KABQ 270520Z 2706/2806 VRB03KT P6SM FEW100
     FM271900 27007KT P6SM SCT100
     FM272200 24012G20KT P6SM BKN100
     FM280200 18008KT P6SM BKN080=



000
FTUS45 KABQ 270520
TAFROW
TAF
KROW 270520Z 2706/2806 30006KT P6SM SKC
     FM271900 23014G22KT P6SM SCT120
     FM280200 22008KT P6SM SCT120=



000
FTUS45 KABQ 270520
TAFTCC
TAF
KTCC 270520Z 2706/2806 26009KT P6SM FEW120
     FM271200 30005KT P6SM FEW120
     FM271900 23012G20KT P6SM SCT120
     FM280200 22009KT P6SM BKN120=



000
FTUS45 KABQ 270520
TAFLVS
TAF
KLVS 270520Z 2706/2806 32009KT P6SM FEW100
     FM271800 22013KT P6SM FEW100
     FM272100 24018G26KT P6SM BKN100
     FM280200 28009KT P6SM BKN080=



000
FTUS45 KABQ 270520
TAFSAF
TAF
KSAF 270520Z 2706/2806 31007KT P6SM BKN070
     FM271800 28012KT P6SM SCT100
     FM272100 26014G22KT P6SM BKN100
     FM280200 34006KT P6SM OVC080=



000
FTUS45 KABQ 270520
TAFLVS
TAF
KLVS 270520Z 2706/2806 32009KT P6SM FEW100
     FM271800 22013KT P6SM FEW100
     FM272100 24018G26KT P6SM BKN100
     FM280200 28009KT P6SM BKN080=



000
FTUS45 KABQ 270520
TAFROW
TAF
KROW 270520Z 2706/2806 30006KT P6SM SKC
     FM271900 23014G22KT P6SM SCT120
     FM280200 22008KT P6SM SCT120=



000
FTUS45 KABQ 270520
TAFTCC
TAF
KTCC 270520Z 2706/2806 26009KT P6SM FEW120
     FM271200 30005KT P6SM FEW120
     FM271900 23012G20KT P6SM SCT120
     FM280200 22009KT P6SM BKN120=



000
FTUS45 KABQ 270358 AAA
TAFROW
TAF AMD
KROW 270358Z 2704/2724 32005KT P6SM SKC
     FM270700 30010KT P6SM FEW120
     FM271900 23014G22KT P6SM SCT120=



000
FTUS45 KABQ 262342 AAA
TAFABQ
TAF AMD
KABQ 262342Z 2700/2724 28014G24KT P6SM VCSH BKN080
      TEMPO 2700/2702 VRB25G40KT OVC060
     FM270200 30007KT P6SM BKN100
     FM270700 VRB04KT P6SM SCT100
     FM271900 26011KT P6SM BKN120=



000
FTUS45 KABQ 262342 AAA
TAFABQ
TAF AMD
KABQ 262342Z 2700/2724 28014G24KT P6SM VCSH BKN080
      TEMPO 2700/2702 VRB25G40KT OVC060
     FM270200 30007KT P6SM BKN100
     FM270700 VRB04KT P6SM SCT100
     FM271900 26011KT P6SM BKN120=



000
FTUS45 KABQ 262325
TAFLVS
TAF
KLVS 262325Z 2700/2724 27018G26KT P6SM BKN080
     FM270300 28012KT P6SM SCT080
     FM270800 32009KT P6SM SCT100
     FM271800 24013KT P6SM FEW120
     FM272100 24018G26KT P6SM BKN120=



000
FTUS45 KABQ 262325
TAFABQ
TAF
KABQ 262325Z 2700/2724 28014G22KT P6SM BKN090
     FM270200 30007KT P6SM BKN100
     FM270700 VRB04KT P6SM SCT100
     FM271900 26011KT P6SM BKN120=



000
FTUS45 KABQ 262325
TAFSAF
TAF
KSAF 262325Z 2700/2724 29016G26KT P6SM VCSH BKN080
     FM270300 30009KT P6SM BKN070
     FM270800 34008KT P6SM SCT080
     FM271900 28014G22KT P6SM BKN100=



000
FTUS45 KABQ 262325
TAFTCC
TAF
KTCC 262325Z 2700/2724 26020G30KT P6SM FEW100
     FM270300 27014KT P6SM SCT120
     FM271100 30008KT P6SM FEW120
     FM271900 24012G20KT P6SM SCT120=



000
FTUS45 KABQ 262325
TAFFMN
TAF
KFMN 262325Z 2700/2724 25018G25KT P6SM VCSH BKN070
     FM270200 31009KT P6SM BKN060
     FM271000 VRB04KT P6SM SCT070
     FM271900 28009KT P6SM BKN100=



000
FTUS45 KABQ 262325
TAFGUP
TAF
KGUP 262325Z 2700/2724 29011KT P6SM VCSH BKN060
     FM270200 28007KT P6SM BKN060
     FM270700 22005KT P6SM SCT070
     FM271900 25012G20KT P6SM BKN100=



000
FTUS45 KABQ 262325
TAFROW
TAF
KROW 262325Z 2700/2724 26025G35KT P6SM SCT200
     FM270200 27014KT P6SM FEW120
     FM270700 30010KT P6SM FEW120
     FM271900 23014G22KT P6SM SCT120=



000
FTUS45 KABQ 262325
TAFFMN
TAF
KFMN 262325Z 2700/2724 25018G25KT P6SM VCSH BKN070
     FM270200 31009KT P6SM BKN060
     FM271000 VRB04KT P6SM SCT070
     FM271900 28009KT P6SM BKN100=



000
FTUS45 KABQ 262325
TAFTCC
TAF
KTCC 262325Z 2700/2724 26020G30KT P6SM FEW100
     FM270300 27014KT P6SM SCT120
     FM271100 30008KT P6SM FEW120
     FM271900 24012G20KT P6SM SCT120=



000
FTUS45 KABQ 262325
TAFLVS
TAF
KLVS 262325Z 2700/2724 27018G26KT P6SM BKN080
     FM270300 28012KT P6SM SCT080
     FM270800 32009KT P6SM SCT100
     FM271800 24013KT P6SM FEW120
     FM272100 24018G26KT P6SM BKN120=



000
FTUS45 KABQ 262325
TAFROW
TAF
KROW 262325Z 2700/2724 26025G35KT P6SM SCT200
     FM270200 27014KT P6SM FEW120
     FM270700 30010KT P6SM FEW120
     FM271900 23014G22KT P6SM SCT120=



000
FTUS45 KABQ 262325
TAFABQ
TAF
KABQ 262325Z 2700/2724 28014G22KT P6SM BKN090
     FM270200 30007KT P6SM BKN100
     FM270700 VRB04KT P6SM SCT100
     FM271900 26011KT P6SM BKN120=



000
FTUS45 KABQ 262325
TAFSAF
TAF
KSAF 262325Z 2700/2724 29016G26KT P6SM VCSH BKN080
     FM270300 30009KT P6SM BKN070
     FM270800 34008KT P6SM SCT080
     FM271900 28014G22KT P6SM BKN100=



000
FTUS45 KABQ 262325
TAFGUP
TAF
KGUP 262325Z 2700/2724 29011KT P6SM VCSH BKN060
     FM270200 28007KT P6SM BKN060
     FM270700 22005KT P6SM SCT070
     FM271900 25012G20KT P6SM BKN100=



    US Dept of Commerce
    National Oceanic and Atmospheric Administration
    National Weather Service
    1325 East West Highway
    Silver Spring, MD 20910
    Page Author: NWS Internet Services Team
Disclaimer
Information Quality
Credits
Glossary
Privacy Policy
Freedom of Information Act (FOIA)
About Us
Career Opportunities